Weather at Goulburn Airport

Public forecast

Using degrees Celsius for public forecast. Weather courtesy of forecast.io.

Closest aviation weather report (METAR) to Goulburn Airport

Closest report is Canberra International Airport, 39.6 nm (73.4 km) SW. Retrieved 2021/04/19 06:30 UTC (23 minutes ago):

YSCB 190630Z AUTO 35016KT 9999 // NCD 16/05 Q1015

Closest aviation forecast (TAF) to Goulburn Airport

Closest forecast is Canberra International Airport, 39.6 nm (73.4 km) SW. Retrieved 2021/04/19 06:33 UTC (20 minutes ago):

TAF YSCB 190507Z 1906/2006 34014KT CAVOK FM190700 34008KT CAVOK FM191200 33005KT 9999 SCT020